Mystic, Missouri
Current Conditions -  °F | °C
As of 1:27 AM on Saturday 25 Oct 2014 (Local Time) from KIRK Reporting Station
Haze Haze  
Wind Chill: 12°   Ceiling: Unl
Heat Index: 12°   Visibility: 2.5mi
Dew Point: 12°   Wind: 5mph
Humidity: 100%   Direction: 250°WSW
Pressure: 29.99"   Gusts: NA
Location:  40.2455°N, 92.9523°W
Report Text: KIRK 250627Z AUTO 25004KT 2 1/2SM BR CLR 12/12 A2999 RMK AO2 T01220122
Loading
Personal Weather Stations






























Interactive Weather Map
Tropical Storm Tracking
New forecast layout! Learn more

10-Day Weather Forecast

Advertisements
Track Severe Weather on mobile